BAW386 EGLL-EBBR
Flight info
| Callsign | BAW386 |
|---|---|
| Flight time | 0h 38m |
| Altitude | 23000 |
| Route | DET Q70 KOK |
| Aircraft | A320/M-SDE3FGHIRWY/LB1 |
Departure
| Time | 2026-05-07 19:30 |
|---|---|
| Airport | London Heathrow Airport (EGLL) |
Arrival
| Time | 2026-05-07 20:09 |
|---|---|
| Airport | Brussels Airport (EBBR) |
| Time | Latitude | Longitude | Altitude | Speed | Heading |
|---|---|---|---|---|---|
| 2026-05-07 19:11 | 51.46931 | -0.48573 | 88 ft | 0 kts | 360° |
| 2026-05-07 19:20 | 51.46919 | -0.48573 | 90 ft | 4 kts | 360° |
| 2026-05-07 19:20 | 51.46896 | -0.48572 | 86 ft | 3 kts | 1° |
| 2026-05-07 19:20 | 51.46879 | -0.48583 | 90 ft | 4 kts | 77° |
| 2026-05-07 19:21 | 51.46877 | -0.48607 | 86 ft | 0 kts | 90° |
| 2026-05-07 19:23 | 51.46877 | -0.48596 | 88 ft | 3 kts | 90° |
| 2026-05-07 19:23 | 51.46877 | -0.48537 | 86 ft | 7 kts | 90° |
| 2026-05-07 19:24 | 51.46847 | -0.48471 | 88 ft | 9 kts | 167° |
| 2026-05-07 19:24 | 51.46828 | -0.48470 | 86 ft | 1 kts | 179° |
| 2026-05-07 19:24 | 51.46814 | -0.48469 | 88 ft | 3 kts | 179° |
| 2026-05-07 19:24 | 51.46784 | -0.48469 | 86 ft | 5 kts | 180° |
| 2026-05-07 19:25 | 51.46737 | -0.48469 | 86 ft | 8 kts | 179° |
| 2026-05-07 19:25 | 51.46674 | -0.48468 | 86 ft | 10 kts | 180° |
| 2026-05-07 19:25 | 51.46603 | -0.48467 | 86 ft | 5 kts | 180° |
| 2026-05-07 19:25 | 51.46600 | -0.48467 | 86 ft | 0 kts | 180° |
| 2026-05-07 19:26 | 51.46591 | -0.48467 | 86 ft | 2 kts | 180° |
| 2026-05-07 19:27 | 51.46566 | -0.48467 | 86 ft | 5 kts | 180° |
| 2026-05-07 19:27 | 51.46523 | -0.48467 | 86 ft | 7 kts | 180° |
| 2026-05-07 19:27 | 51.46480 | -0.48417 | 87 ft | 9 kts | 106° |
| 2026-05-07 19:27 | 51.46479 | -0.48372 | 87 ft | 0 kts | 90° |
| 2026-05-07 19:29 | 51.46479 | -0.48209 | 89 ft | 45 kts | 90° |
| 2026-05-07 19:29 | 51.46481 | -0.47351 | 86 ft | 105 kts | 89° |
| 2026-05-07 19:30 | 51.46486 | -0.45928 | 89 ft | 148 kts | 90° |
| 2026-05-07 19:30 | 51.46494 | -0.44154 | 430 ft | 158 kts | 90° |
| 2026-05-07 19:30 | 51.46453 | -0.42414 | 1088 ft | 157 kts | 100° |
| 2026-05-07 19:30 | 51.46041 | -0.40757 | 1477 ft | 168 kts | 123° |
| 2026-05-07 19:31 | 51.45357 | -0.39159 | 1844 ft | 182 kts | 124° |
| 2026-05-07 19:31 | 51.44643 | -0.37322 | 2097 ft | 207 kts | 122° |
| 2026-05-07 19:31 | 51.43880 | -0.35202 | 2462 ft | 232 kts | 115° |
| 2026-05-07 19:31 | 51.43389 | -0.32622 | 2959 ft | 251 kts | 103° |
| 2026-05-07 19:32 | 51.42997 | -0.29868 | 3842 ft | 256 kts | 103° |
| 2026-05-07 19:32 | 51.42599 | -0.27077 | 4785 ft | 258 kts | 102° |
| 2026-05-07 19:32 | 51.42204 | -0.24241 | 5641 ft | 263 kts | 102° |
| 2026-05-07 19:32 | 51.41807 | -0.21339 | 6473 ft | 269 kts | 102° |
| 2026-05-07 19:33 | 51.41404 | -0.18378 | 7235 ft | 275 kts | 103° |
| 2026-05-07 19:33 | 51.40990 | -0.15345 | 8008 ft | 281 kts | 103° |
| 2026-05-07 19:33 | 51.40568 | -0.12263 | 8778 ft | 286 kts | 103° |
| 2026-05-07 19:33 | 51.40138 | -0.09115 | 9586 ft | 291 kts | 103° |
| 2026-05-07 19:34 | 51.39697 | -0.05923 | 10291 ft | 299 kts | 104° |
| 2026-05-07 19:34 | 51.39229 | -0.02570 | 10517 ft | 322 kts | 104° |
| 2026-05-07 19:34 | 51.38721 | 0.01046 | 10703 ft | 344 kts | 104° |
| 2026-05-07 19:34 | 51.38189 | 0.04840 | 11191 ft | 353 kts | 104° |
| 2026-05-07 19:35 | 51.37652 | 0.08700 | 11842 ft | 357 kts | 104° |
| 2026-05-07 19:35 | 51.37109 | 0.12593 | 12505 ft | 360 kts | 104° |
| 2026-05-07 19:35 | 51.36561 | 0.16512 | 13165 ft | 363 kts | 104° |
| 2026-05-07 19:35 | 51.36006 | 0.20485 | 13836 ft | 367 kts | 104° |
| 2026-05-07 19:36 | 51.35442 | 0.24485 | 14438 ft | 370 kts | 104° |
| 2026-05-07 19:36 | 51.34869 | 0.28515 | 15009 ft | 374 kts | 104° |
| 2026-05-07 19:36 | 51.34290 | 0.32578 | 15557 ft | 377 kts | 104° |
| 2026-05-07 19:36 | 51.33702 | 0.36694 | 16101 ft | 380 kts | 104° |
| 2026-05-07 19:37 | 51.33111 | 0.40835 | 16635 ft | 384 kts | 104° |
| 2026-05-07 19:37 | 51.32516 | 0.45014 | 16977 ft | 388 kts | 104° |
| 2026-05-07 19:37 | 51.31915 | 0.49244 | 17510 ft | 392 kts | 104° |
| 2026-05-07 19:37 | 51.31304 | 0.53511 | 18073 ft | 396 kts | 104° |
| 2026-05-07 19:38 | 51.30684 | 0.57817 | 18579 ft | 399 kts | 103° |
| 2026-05-07 19:38 | 51.30305 | 0.62233 | 19077 ft | 404 kts | 95° |
| 2026-05-07 19:38 | 51.30144 | 0.66729 | 19593 ft | 407 kts | 94° |
| 2026-05-07 19:38 | 51.29983 | 0.71261 | 20123 ft | 410 kts | 94° |
| 2026-05-07 19:39 | 51.29822 | 0.75818 | 20637 ft | 413 kts | 94° |
| 2026-05-07 19:39 | 51.29657 | 0.80423 | 21126 ft | 416 kts | 94° |
| 2026-05-07 19:39 | 51.29489 | 0.85048 | 21611 ft | 419 kts | 95° |
| 2026-05-07 19:39 | 51.29376 | 0.88132 | 21924 ft | 420 kts | 95° |
| 2026-05-07 19:40 | 51.29201 | 0.92813 | 22391 ft | 423 kts | 95° |
| 2026-05-07 19:40 | 51.29021 | 0.97523 | 22844 ft | 426 kts | 95° |
| 2026-05-07 19:40 | 51.28837 | 1.02262 | 23046 ft | 429 kts | 95° |
| 2026-05-07 19:40 | 51.28649 | 1.07082 | 23086 ft | 441 kts | 95° |
| 2026-05-07 19:41 | 51.28455 | 1.12004 | 23084 ft | 446 kts | 95° |
| 2026-05-07 19:41 | 51.28261 | 1.16958 | 23084 ft | 447 kts | 95° |
| 2026-05-07 19:41 | 51.28063 | 1.21908 | 23084 ft | 447 kts | 95° |
| 2026-05-07 19:41 | 51.27862 | 1.26873 | 23084 ft | 447 kts | 95° |
| 2026-05-07 19:42 | 51.27662 | 1.31832 | 23084 ft | 447 kts | 95° |
| 2026-05-07 19:42 | 51.27461 | 1.36785 | 23080 ft | 445 kts | 95° |
| 2026-05-07 19:42 | 51.27269 | 1.41627 | 23080 ft | 432 kts | 95° |
| 2026-05-07 19:42 | 51.27077 | 1.46395 | 23080 ft | 429 kts | 95° |
| 2026-05-07 19:43 | 51.26879 | 1.51153 | 23085 ft | 429 kts | 95° |
| 2026-05-07 19:43 | 51.26680 | 1.55900 | 23085 ft | 428 kts | 95° |
| 2026-05-07 19:43 | 51.26481 | 1.60637 | 23085 ft | 428 kts | 95° |
| 2026-05-07 19:43 | 51.26283 | 1.65306 | 23085 ft | 428 kts | 95° |
| 2026-05-07 19:44 | 51.26082 | 1.70047 | 23082 ft | 428 kts | 95° |
| 2026-05-07 19:44 | 51.25880 | 1.74789 | 23085 ft | 428 kts | 95° |
| 2026-05-07 19:44 | 51.25678 | 1.79525 | 23085 ft | 428 kts | 95° |
| 2026-05-07 19:44 | 51.25475 | 1.84274 | 23085 ft | 428 kts | 95° |
| 2026-05-07 19:45 | 51.25271 | 1.89003 | 23084 ft | 428 kts | 95° |
| 2026-05-07 19:45 | 51.25065 | 1.93750 | 23079 ft | 428 kts | 95° |
| 2026-05-07 19:45 | 51.24855 | 1.98494 | 23077 ft | 428 kts | 95° |
| 2026-05-07 19:45 | 51.24643 | 2.03229 | 23077 ft | 429 kts | 95° |
| 2026-05-07 19:46 | 51.24429 | 2.07980 | 23077 ft | 429 kts | 95° |
| 2026-05-07 19:46 | 51.24215 | 2.12723 | 23079 ft | 429 kts | 95° |
| 2026-05-07 19:46 | 51.24000 | 2.17465 | 23081 ft | 429 kts | 95° |
| 2026-05-07 19:46 | 51.23784 | 2.22214 | 23084 ft | 429 kts | 95° |
| 2026-05-07 19:47 | 51.23567 | 2.26966 | 23081 ft | 429 kts | 95° |
| 2026-05-07 19:47 | 51.23349 | 2.31720 | 23084 ft | 429 kts | 95° |
| 2026-05-07 19:47 | 51.23129 | 2.36475 | 23087 ft | 429 kts | 95° |
| 2026-05-07 19:47 | 51.22909 | 2.41220 | 23084 ft | 429 kts | 95° |
| 2026-05-07 19:48 | 51.22687 | 2.45972 | 23080 ft | 429 kts | 95° |
| 2026-05-07 19:48 | 51.22464 | 2.50722 | 23087 ft | 430 kts | 95° |
| 2026-05-07 19:48 | 51.22240 | 2.55479 | 23080 ft | 430 kts | 95° |
| 2026-05-07 19:48 | 51.22016 | 2.60231 | 23087 ft | 430 kts | 95° |
| 2026-05-07 19:49 | 51.21794 | 2.64914 | 23086 ft | 430 kts | 95° |
| 2026-05-07 19:49 | 51.21565 | 2.69733 | 23088 ft | 430 kts | 95° |
| 2026-05-07 19:49 | 51.21342 | 2.74408 | 22772 ft | 427 kts | 95° |
| 2026-05-07 19:49 | 51.21117 | 2.79113 | 22198 ft | 424 kts | 95° |
| 2026-05-07 19:50 | 51.20892 | 2.83789 | 21664 ft | 422 kts | 95° |
| 2026-05-07 19:50 | 51.20667 | 2.88430 | 21137 ft | 418 kts | 95° |
| 2026-05-07 19:50 | 51.20442 | 2.93025 | 20624 ft | 415 kts | 95° |
| 2026-05-07 19:50 | 51.20217 | 2.97596 | 20119 ft | 411 kts | 95° |
| 2026-05-07 19:51 | 51.19993 | 3.02119 | 19623 ft | 408 kts | 95° |
| 2026-05-07 19:51 | 51.19769 | 3.06617 | 19126 ft | 404 kts | 95° |
| 2026-05-07 19:51 | 51.19545 | 3.11070 | 18659 ft | 401 kts | 95° |
| 2026-05-07 19:51 | 51.19322 | 3.15481 | 18150 ft | 398 kts | 95° |
| 2026-05-07 19:52 | 51.19100 | 3.19855 | 17609 ft | 394 kts | 95° |
| 2026-05-07 19:52 | 51.18882 | 3.24181 | 17076 ft | 390 kts | 95° |
| 2026-05-07 19:52 | 51.18667 | 3.28482 | 16551 ft | 387 kts | 95° |
| 2026-05-07 19:52 | 51.18455 | 3.32737 | 16031 ft | 383 kts | 95° |
| 2026-05-07 19:53 | 51.18246 | 3.36966 | 15523 ft | 380 kts | 95° |
| 2026-05-07 19:53 | 51.18039 | 3.41149 | 15025 ft | 377 kts | 95° |
| 2026-05-07 19:53 | 51.17836 | 3.45297 | 14532 ft | 374 kts | 95° |
| 2026-05-07 19:53 | 51.17635 | 3.49414 | 14050 ft | 371 kts | 95° |
| 2026-05-07 19:54 | 51.17439 | 3.53450 | 13541 ft | 369 kts | 95° |
| 2026-05-07 19:54 | 51.17240 | 3.57513 | 13007 ft | 365 kts | 95° |
| 2026-05-07 19:54 | 51.17036 | 3.61585 | 12472 ft | 362 kts | 95° |
| 2026-05-07 19:54 | 51.16837 | 3.65513 | 11965 ft | 358 kts | 95° |
| 2026-05-07 19:55 | 51.16631 | 3.69502 | 11435 ft | 355 kts | 95° |
| 2026-05-07 19:55 | 51.16426 | 3.73407 | 10925 ft | 352 kts | 95° |
| 2026-05-07 19:55 | 51.16230 | 3.77059 | 10466 ft | 349 kts | 95° |
| 2026-05-07 19:55 | 51.16026 | 3.80837 | 10321 ft | 335 kts | 95° |
| 2026-05-07 19:56 | 51.15831 | 3.84415 | 10199 ft | 323 kts | 95° |
| 2026-05-07 19:56 | 51.15640 | 3.87918 | 10078 ft | 312 kts | 95° |
| 2026-05-07 19:56 | 51.15454 | 3.91302 | 9954 ft | 302 kts | 95° |
| 2026-05-07 19:56 | 51.15275 | 3.94575 | 9792 ft | 293 kts | 95° |
| 2026-05-07 19:57 | 51.15098 | 3.97794 | 9499 ft | 290 kts | 95° |
| 2026-05-07 19:57 | 51.14923 | 4.00985 | 9179 ft | 288 kts | 95° |
| 2026-05-07 19:57 | 51.14750 | 4.04144 | 8858 ft | 286 kts | 95° |
| 2026-05-07 19:57 | 51.14577 | 4.07290 | 8538 ft | 284 kts | 95° |
| 2026-05-07 19:58 | 51.14406 | 4.10413 | 8222 ft | 282 kts | 95° |
| 2026-05-07 19:58 | 51.14238 | 4.13506 | 8070 ft | 280 kts | 96° |
| 2026-05-07 19:58 | 51.14068 | 4.16602 | 8080 ft | 281 kts | 96° |
| 2026-05-07 19:58 | 51.13898 | 4.19705 | 8081 ft | 282 kts | 96° |
| 2026-05-07 19:59 | 51.13728 | 4.22811 | 8083 ft | 282 kts | 96° |
| 2026-05-07 19:59 | 51.13557 | 4.25923 | 8081 ft | 282 kts | 96° |
| 2026-05-07 19:59 | 51.13385 | 4.29029 | 8089 ft | 282 kts | 96° |
| 2026-05-07 19:59 | 51.13214 | 4.32135 | 8087 ft | 282 kts | 96° |
| 2026-05-07 20:00 | 51.13042 | 4.35248 | 8087 ft | 282 kts | 96° |
| 2026-05-07 20:00 | 51.12870 | 4.38355 | 8085 ft | 282 kts | 96° |
| 2026-05-07 20:00 | 51.12699 | 4.41463 | 8081 ft | 282 kts | 96° |
| 2026-05-07 20:00 | 51.12529 | 4.44557 | 7853 ft | 279 kts | 96° |
| 2026-05-07 20:01 | 51.12361 | 4.47609 | 7311 ft | 276 kts | 96° |
| 2026-05-07 20:01 | 51.12193 | 4.50642 | 6762 ft | 273 kts | 96° |
| 2026-05-07 20:01 | 51.12027 | 4.53638 | 6216 ft | 270 kts | 96° |
| 2026-05-07 20:01 | 51.11862 | 4.56602 | 5669 ft | 267 kts | 96° |
| 2026-05-07 20:02 | 51.11696 | 4.59485 | 5147 ft | 263 kts | 96° |
| 2026-05-07 20:02 | 51.11524 | 4.62365 | 4616 ft | 259 kts | 96° |
| 2026-05-07 20:02 | 51.11237 | 4.65188 | 4252 ft | 257 kts | 111° |
| 2026-05-07 20:02 | 51.10270 | 4.67429 | 4117 ft | 239 kts | 137° |
| 2026-05-07 20:03 | 51.09014 | 4.69050 | 3849 ft | 228 kts | 142° |
| 2026-05-07 20:03 | 51.07751 | 4.70546 | 3397 ft | 225 kts | 142° |
| 2026-05-07 20:03 | 51.06491 | 4.72018 | 2924 ft | 224 kts | 143° |
| 2026-05-07 20:03 | 51.05229 | 4.73488 | 2526 ft | 225 kts | 143° |
| 2026-05-07 20:04 | 51.03972 | 4.74951 | 2242 ft | 224 kts | 143° |
| 2026-05-07 20:04 | 51.02613 | 4.76077 | 2040 ft | 222 kts | 168° |
| 2026-05-07 20:04 | 51.01089 | 4.75862 | 2007 ft | 219 kts | 202° |
| 2026-05-07 20:04 | 50.99795 | 4.74744 | 2007 ft | 205 kts | 211° |
| 2026-05-07 20:05 | 50.98633 | 4.73554 | 2029 ft | 194 kts | 212° |
| 2026-05-07 20:05 | 50.97522 | 4.72387 | 2026 ft | 190 kts | 213° |
| 2026-05-07 20:05 | 50.96424 | 4.71230 | 2016 ft | 189 kts | 213° |
| 2026-05-07 20:05 | 50.95328 | 4.70075 | 2012 ft | 188 kts | 213° |
| 2026-05-07 20:06 | 50.94241 | 4.68920 | 2013 ft | 188 kts | 215° |
| 2026-05-07 20:06 | 50.93378 | 4.67377 | 2008 ft | 189 kts | 242° |
| 2026-05-07 20:06 | 50.92892 | 4.65433 | 1887 ft | 188 kts | 250° |
| 2026-05-07 20:06 | 50.92466 | 4.63547 | 1673 ft | 175 kts | 250° |
| 2026-05-07 20:07 | 50.92061 | 4.61768 | 1460 ft | 170 kts | 250° |
| 2026-05-07 20:07 | 50.91670 | 4.60064 | 1220 ft | 157 kts | 250° |
| 2026-05-07 20:07 | 50.91312 | 4.58505 | 1016 ft | 150 kts | 250° |
| 2026-05-07 20:07 | 50.90956 | 4.56953 | 814 ft | 146 kts | 250° |
| 2026-05-07 20:08 | 50.90616 | 4.55468 | 637 ft | 144 kts | 250° |
| 2026-05-07 20:08 | 50.90272 | 4.53954 | 428 ft | 144 kts | 250° |
| 2026-05-07 20:08 | 50.89936 | 4.52498 | 241 ft | 142 kts | 250° |
| 2026-05-07 20:08 | 50.89613 | 4.51090 | 175 ft | 121 kts | 250° |
| 2026-05-07 20:09 | 50.89380 | 4.50101 | 177 ft | 67 kts | 249° |
| 2026-05-07 20:09 | 50.89339 | 4.49752 | 177 ft | 23 kts | 286° |
| 2026-05-07 20:09 | 50.89426 | 4.49554 | 168 ft | 21 kts | 307° |
| 2026-05-07 20:10 | 50.89611 | 4.49248 | 154 ft | 15 kts | 11° |
| 2026-05-07 20:10 | 50.89733 | 4.49298 | 147 ft | 18 kts | 14° |
| 2026-05-07 20:10 | 50.89841 | 4.49342 | 140 ft | 15 kts | 14° |
| 2026-05-07 20:10 | 50.89950 | 4.49386 | 134 ft | 11 kts | 15° |
| 2026-05-07 20:11 | 50.90043 | 4.49425 | 128 ft | 16 kts | 14° |
| 2026-05-07 20:11 | 50.90163 | 4.49474 | 127 ft | 18 kts | 14° |
| 2026-05-07 20:11 | 50.90218 | 4.49496 | 123 ft | 0 kts | 14° |
| 2026-05-07 20:12 | 50.90236 | 4.49503 | 126 ft | 5 kts | 14° |
| 2026-05-07 20:12 | 50.90283 | 4.49522 | 126 ft | 9 kts | 14° |
| 2026-05-07 20:12 | 50.90351 | 4.49526 | 121 ft | 11 kts | 330° |
| 2026-05-07 20:12 | 50.90351 | 4.49407 | 121 ft | 13 kts | 245° |
| 2026-05-07 20:13 | 50.90314 | 4.49278 | 125 ft | 13 kts | 245° |
| 2026-05-07 20:13 | 50.90272 | 4.49135 | 125 ft | 15 kts | 246° |
| 2026-05-07 20:13 | 50.90224 | 4.48966 | 126 ft | 18 kts | 245° |
| 2026-05-07 20:13 | 50.90168 | 4.48772 | 126 ft | 21 kts | 245° |
| 2026-05-07 20:14 | 50.90107 | 4.48561 | 124 ft | 16 kts | 246° |
| 2026-05-07 20:14 | 50.90080 | 4.48467 | 126 ft | 9 kts | 245° |
| 2026-05-07 20:14 | 50.90039 | 4.48446 | 127 ft | 6 kts | 156° |
| 2026-05-07 20:14 | 50.90002 | 4.48473 | 128 ft | 5 kts | 155° |
| 2026-05-07 20:15 | 50.89993 | 4.48480 | 128 ft | 0 kts | 155° |
| 2026-05-07 20:15 | 50.89992 | 4.48481 | 128 ft | 0 kts | 155° |